Etusivu
METAR-TAF:

METAR-TAF

Lentoasemat :

Kalmarin lentoasema

Kalmar, Ruotsi

Leveyspiiri: 56-44N, Pituuspiiri: 016-18E, korkeus merenpinnasta: 16 m

Tämänhetkinen sää

Tämä raportti tehtiin 22 minuuttia sitten, kello 12.20 UTC
Tuuli 11 kn lännestä
Lämpötila 14°C
Kosteus 28%
Ilmanpaine 1031 hPa
Näkyvyys 10 km tai enemmän
ei pilviä alle 1500 m:ssä eikä cumulonimbus-pilviä

METAR: ESMQ 251220Z 28011KT CAVOK 14/M04 Q1031

Aika: 14:42 (12:42 UTC)

Sääennuste

Tämä raportti tehtiin 1 tunti ja 12 minuuttia sitten, kello 11.30 UTC
Ennuste voimassa 25. päivästä klo 12 UTC - 25. päivään klo 21 UTC
Tuuli 12 kn luoteesta
Näkyvyys 10 km tai enemmän
ei pilviä alle 1500 m:ssä eikä cumulonimbus-pilviä
Tulossa
25. päivästä klo 15 UTC - 25. päivään klo 17 UTC
Tuuli 6 kn lännestä

TAF: ESMQ 251130Z 2512/2521 32012KT CAVOK BECMG 2515/2517 26006KT

Säähavainnot ja -ennusteet yli 4000 lentoasemalta (METAR- ja TAF-raportit).

Käytössä olevat sääasemat on merkitty karttaan keltaisilla ja punaisilla pisteillä.

Aseta hiiri pisteen päälle nähdäksesi sääaseman nimen.

Klikkaa sitten nähdäksesi säähavainnot ja -ennusteet.

Kartan vaihtaminen: klikkaa mustalla rastilla varustettuja vihreitä pisteitä, niin voit zoomata sisään; viivalla varustettua vihreää pistettä, niin voit zoomata ulos tai vihreitä nuolia, niin pääset viereisille kartoille.


METAR-TAF: